Time;durP1;ratioP1;P1;durP2;ratioP2;P2;SDS_P1;SDS_P2;PMS_P1;PMS_P2;Temp;Humidity;BMP_temperature;BMP_pressure;BME280_temperature;BME280_humidity;BME280_pressure;Samples;Min_cycle;Max_cycle;Signal;HPM_P1;HPM_P2
2023/06/03 00:01:59;;;;;;;181.50;63.10;;;;;;;17.15;59.12;102251.09;5025604;22;20149;-75
2023/06/03 00:04:29;;;;;;;181.25;63.47;;;;;;;17.14;59.62;102249.34;5008376;28;20028;-75
2023/06/03 00:06:57;;;;;;;175.05;61.40;;;;;;;17.12;59.54;102252.03;5005663;28;20503;-75
2023/06/03 00:09:23;;;;;;;178.32;62.13;;;;;;;17.13;59.51;102252.94;4993127;28;20030;-73
2023/06/03 00:11:48;;;;;;;182.40;62.42;;;;;;;17.14;59.52;102254.63;4994574;28;20402;-74
2023/06/03 00:14:13;;;;;;;196.32;62.60;;;;;;;17.13;59.88;102252.94;5002714;28;20034;-74
2023/06/03 00:16:42;;;;;;;175.07;61.28;;;;;;;17.13;60.52;102252.94;4990728;28;20022;-74
2023/06/03 00:19:07;;;;;;;180.90;61.50;;;;;;;17.11;59.96;102252.06;4985937;28;20034;-74
2023/06/03 00:21:34;;;;;;;188.93;62.08;;;;;;;17.11;59.99;102249.44;4994437;28;20034;-75
2023/06/03 00:23:59;;;;;;;178.82;60.38;;;;;;;17.12;60.45;102245.91;5008144;28;20465;-74
2023/06/03 00:26:25;;;;;;;176.10;61.50;;;;;;;17.10;60.14;102248.56;5008780;28;20049;-74
2023/06/03 00:28:51;;;;;;;171.88;60.35;;;;;;;17.09;60.77;102246.81;4985620;28;20026;-74
2023/06/03 00:31:16;;;;;;;175.20;61.53;;;;;;;17.10;60.21;102248.56;4980297;28;20033;-75
2023/06/03 00:33:41;;;;;;;184.02;63.35;;;;;;;17.10;62.21;102242.41;4992718;28;20479;-75
2023/06/03 00:36:07;;;;;;;183.50;62.95;;;;;;;17.11;62.49;102247.69;4975569;28;20488;-74
2023/06/03 00:38:32;;;;;;;173.18;60.58;;;;;;;17.10;62.01;102253.84;4991758;28;20463;-75
2023/06/03 00:40:57;;;;;;;170.60;60.15;;;;;;;17.11;62.49;102252.06;4976382;28;20033;-74
2023/06/03 00:43:23;;;;;;;173.45;60.72;;;;;;;17.10;62.33;102258.25;4993267;28;20175;-74
2023/06/03 00:45:48;;;;;;;178.93;62.45;;;;;;;17.11;62.07;102260.00;4993334;28;20391;-74
2023/06/03 00:48:14;;;;;;;179.27;62.03;;;;;;;17.10;61.99;102251.22;5000369;28;20027;-75
2023/06/03 00:50:39;;;;;;;168.27;60.78;;;;;;;17.10;62.17;102261.78;4989969;28;20031;-74
2023/06/03 00:53:05;;;;;;;176.02;61.65;;;;;;;17.10;61.75;102263.50;4990991;28;20034;-74
2023/06/03 00:55:31;;;;;;;175.23;60.92;;;;;;;17.09;61.87;102261.81;4992365;28;20022;-74
2023/06/03 00:57:57;;;;;;;167.68;61.03;;;;;;;17.10;61.74;102274.06;4976460;28;20034;-74
2023/06/03 01:00:22;;;;;;;173.27;62.75;;;;;;;17.09;62.01;102273.22;4992118;28;20026;-73
2023/06/03 01:02:47;;;;;;;179.43;62.42;;;;;;;17.09;61.45;102272.34;4993687;28;20076;-74
2023/06/03 01:05:14;;;;;;;172.68;61.97;;;;;;;17.09;62.15;102270.56;4993554;28;20023;-75
2023/06/03 01:08:00;;;;;;;175.27;61.53;;;;;;;17.08;62.33;102271.47;4992682;28;20483;-75
2023/06/03 01:10:37;;;;;;;181.32;62.42;;;;;;;17.09;62.28;102277.63;4991316;28;20034;-75
2023/06/03 01:13:11;;;;;;;177.00;60.63;;;;;;;17.05;62.60;102272.38;4991506;28;20399;-75
2023/06/03 01:15:38;;;;;;;175.65;62.10;;;;;;;17.06;62.43;102273.28;4975285;28;20023;-74
2023/06/03 01:18:05;;;;;;;187.63;62.50;;;;;;;17.05;62.31;102271.53;5007384;28;20026;-74
2023/06/03 01:20:31;;;;;;;175.73;60.90;;;;;;;17.05;62.75;102269.75;4987691;28;20022;-74
2023/06/03 01:23:16;;;;;;;172.57;60.80;;;;;;;17.05;62.85;102276.81;4992686;28;20032;-74
2023/06/03 01:25:42;;;;;;;176.02;62.60;;;;;;;17.03;62.32;102268.06;4973630;28;20035;-75
2023/06/03 01:28:07;;;;;;;180.05;61.72;;;;;;;17.02;62.56;102269.81;4974507;28;20031;-76
2023/06/03 01:30:33;;;;;;;180.55;64.82;;;;;;;17.03;62.95;102278.63;4989782;28;20033;-75
2023/06/03 01:32:58;;;;;;;175.50;62.38;;;;;;;17.02;62.66;102272.47;4991646;28;20026;-75
2023/06/03 01:35:24;;;;;;;168.48;60.85;;;;;;;17.02;62.57;102269.81;4992973;28;20030;-75
2023/06/03 01:37:50;;;;;;;175.85;61.60;;;;;;;17.01;63.22;102270.72;4992001;28;20053;-75
2023/06/03 01:40:16;;;;;;;176.70;62.22;;;;;;;17.00;63.32;102271.63;4991358;28;20025;-76
2023/06/03 01:42:41;;;;;;;178.82;61.47;;;;;;;16.99;63.11;102283.06;5007910;28;20033;-75
2023/06/03 01:45:07;;;;;;;181.20;62.35;;;;;;;17.00;62.92;102284.81;5006801;28;20026;-74
2023/06/03 01:47:34;;;;;;;174.48;62.05;;;;;;;16.99;63.16;102283.06;5008125;28;20030;-75
2023/06/03 01:49:59;;;;;;;172.93;60.70;;;;;;;17.01;63.09;102283.03;5008869;28;20029;-75
2023/06/03 01:52:26;;;;;;;176.35;62.40;;;;;;;16.99;63.25;102280.44;5008029;28;20487;-76
2023/06/03 01:54:51;;;;;;;175.10;61.30;;;;;;;16.99;63.21;102291.00;4991849;28;20480;-75
2023/06/03 01:57:17;;;;;;;173.63;61.83;;;;;;;16.99;63.49;102284.88;5001323;28;20030;-75
2023/06/03 01:59:42;;;;;;;174.73;61.63;;;;;;;17.00;63.72;102290.09;5007875;28;20495;-76
2023/06/03 02:02:07;;;;;;;175.27;61.20;;;;;;;16.97;63.58;102279.59;4992474;28;20034;-75
2023/06/03 02:04:33;;;;;;;174.80;61.72;;;;;;;16.98;63.33;102283.97;4992699;28;20045;-76
2023/06/03 02:06:59;;;;;;;174.55;61.72;;;;;;;16.99;63.40;102284.88;4975195;28;20409;-75
2023/06/03 02:09:27;;;;;;;179.35;63.35;;;;;;;16.97;63.12;102284.88;4988657;28;20037;-76
2023/06/03 02:11:56;;;;;;;173.38;61.72;;;;;;;16.99;63.90;102287.50;4989897;28;20470;-75
2023/06/03 02:14:21;;;;;;;183.48;63.70;;;;;;;16.98;64.07;102283.13;4991033;28;20041;-76
2023/06/03 02:16:48;;;;;;;174.57;60.33;;;;;;;16.97;64.16;102284.00;4964628;28;20113;-76
2023/06/03 02:19:20;;;;;;;175.02;61.42;;;;;;;16.96;64.30;102283.16;4956051;28;20085;-75
2023/06/03 02:21:46;;;;;;;175.13;61.08;;;;;;;16.96;64.35;102277.88;4982739;28;20109;-75
2023/06/03 02:24:16;;;;;;;202.32;65.38;;;;;;;16.95;64.56;102278.75;4988889;28;20038;-75
2023/06/03 02:26:49;;;;;;;175.75;61.60;;;;;;;16.96;64.44;102276.97;4974977;28;20084;-75
2023/06/03 02:29:22;;;;;;;175.95;61.10;;;;;;;16.95;64.52;102276.13;4980316;28;20076;-76
2023/06/03 02:31:52;;;;;;;174.70;60.78;;;;;;;16.96;65.26;102279.63;4974856;28;20403;-78
2023/06/03 02:34:17;;;;;;;174.85;62.65;;;;;;;16.94;64.77;102274.38;4991150;28;20432;-76
2023/06/03 02:36:43;;;;;;;173.48;60.28;;;;;;;16.94;65.07;102274.38;5007402;28;20034;-76
2023/06/03 02:39:09;;;;;;;176.50;61.90;;;;;;;16.93;64.82;102267.34;4990194;28;20049;-76
2023/06/03 02:41:38;;;;;;;179.15;62.72;;;;;;;16.94;65.04;102281.44;4986944;28;20064;-75
2023/06/03 02:44:04;;;;;;;178.85;62.63;;;;;;;16.94;64.98;102273.50;4973716;28;20026;-76
2023/06/03 02:46:30;;;;;;;172.10;61.63;;;;;;;16.93;64.58;102277.91;4990830;28;20109;-76
2023/06/03 02:48:55;;;;;;;167.27;61.50;;;;;;;16.93;64.79;102275.25;4992498;28;20101;-75
2023/06/03 02:51:21;;;;;;;169.55;61.05;;;;;;;16.94;64.53;102273.50;4990929;28;20487;-76
2023/06/03 02:53:46;;;;;;;176.73;61.47;;;;;;;16.92;65.04;102273.53;4990792;28;20034;-76
2023/06/03 02:56:12;;;;;;;169.77;61.72;;;;;;;16.94;64.69;102273.50;4970967;28;20183;-76
2023/06/03 02:58:37;;;;;;;190.35;65.50;;;;;;;16.94;65.07;102277.00;4989333;28;20026;-76
2023/06/03 03:01:02;;;;;;;175.02;62.20;;;;;;;16.94;65.09;102278.78;4991653;28;20026;-76
2023/06/03 03:03:28;;;;;;;174.32;60.70;;;;;;;16.94;64.80;102274.38;5007416;28;20058;-76
2023/06/03 03:05:54;;;;;;;176.85;64.05;;;;;;;16.94;65.09;102279.66;5004935;28;20014;-76
2023/06/03 03:08:22;;;;;;;180.60;62.90;;;;;;;16.94;65.23;102281.44;4971129;28;20377;-76
2023/06/03 03:10:48;;;;;;;183.23;63.75;;;;;;;16.95;65.37;102281.41;4973397;28;20536;-75
2023/06/03 03:13:14;;;;;;;175.27;61.80;;;;;;;16.96;65.20;102288.41;4974881;28;20169;-75
2023/06/03 03:15:40;;;;;;;174.10;61.55;;;;;;;16.96;64.96;102283.16;5005671;28;20033;-75
2023/06/03 03:18:05;;;;;;;175.35;62.20;;;;;;;16.96;65.37;102288.41;4992040;28;20476;-75
2023/06/03 03:20:30;;;;;;;173.98;60.47;;;;;;;16.97;65.30;102290.13;4992059;28;20034;-76
2023/06/03 03:22:56;;;;;;;187.70;63.78;;;;;;;16.98;64.78;102291.03;4989253;28;20045;-76
2023/06/03 03:25:21;;;;;;;171.68;60.38;;;;;;;16.97;64.85;102282.22;4990316;28;20015;-75
2023/06/03 03:27:47;;;;;;;176.65;62.00;;;;;;;16.99;64.50;102287.50;4990516;28;20055;-76
2023/06/03 03:30:13;;;;;;;173.40;62.20;;;;;;;16.98;64.57;102291.88;5006199;28;20022;-76
2023/06/03 03:32:38;;;;;;;184.50;63.63;;;;;;;16.99;64.57;102288.34;5004208;28;20037;-74
2023/06/03 03:35:17;;;;;;;178.23;61.70;;;;;;;16.99;65.13;102288.34;4975493;28;20030;-75
2023/06/03 03:37:43;;;;;;;176.95;62.85;;;;;;;17.00;64.76;102289.22;4989849;28;20026;-74
2023/06/03 03:40:26;;;;;;;183.05;64.53;;;;;;;17.01;64.49;102294.47;4994155;28;20361;-75
2023/06/03 03:42:53;;;;;;;183.93;64.18;;;;;;;17.03;64.18;102297.09;4992856;28;20026;-75
2023/06/03 03:45:21;;;;;;;176.18;62.63;;;;;;;17.02;64.21;102296.22;4998123;28;20045;-75
2023/06/03 03:47:50;;;;;;;177.13;61.95;;;;;;;17.04;64.59;102299.72;4996057;28;20041;-75
2023/06/03 03:50:29;;;;;;;182.63;62.72;;;;;;;17.05;64.16;102293.50;4994934;28;20076;-74
2023/06/03 03:52:58;;;;;;;195.43;65.13;;;;;;;17.06;64.35;102294.41;4990601;28;21864;-75
2023/06/03 03:55:24;;;;;;;173.60;62.40;;;;;;;17.08;63.85;102308.44;4993678;28;20097;-75
2023/06/03 03:57:50;;;;;;;172.70;61.40;;;;;;;17.08;64.15;102302.28;4960602;28;20065;-74
2023/06/03 04:00:16;;;;;;;174.55;61.85;;;;;;;17.08;63.73;102292.59;4976477;28;20026;-75
2023/06/03 04:02:41;;;;;;;174.98;61.60;;;;;;;17.09;63.89;102298.75;4993706;28;20026;-73
2023/06/03 04:05:08;;;;;;;175.85;62.45;;;;;;;17.11;63.92;102297.84;4999272;28;20014;-75
2023/06/03 04:07:38;;;;;;;174.02;60.33;;;;;;;17.13;64.03;102305.72;5010482;28;20399;-76
2023/06/03 04:10:08;;;;;;;173.52;61.28;;;;;;;17.12;63.91;102296.06;4993183;28;20169;-75
2023/06/03 04:12:36;;;;;;;174.07;62.92;;;;;;;17.13;63.47;102295.16;4994527;28;20030;-76
2023/06/03 04:15:02;;;;;;;171.30;61.75;;;;;;;17.15;63.66;102302.16;4995481;28;20110;-76
2023/06/03 04:17:27;;;;;;;170.35;60.95;;;;;;;17.19;64.20;102310.88;4994038;28;20054;-76
2023/06/03 04:19:55;;;;;;;172.88;61.33;;;;;;;17.19;63.97;102302.94;4990796;28;20026;-76
2023/06/03 04:22:22;;;;;;;173.57;62.35;;;;;;;17.19;64.04;102295.94;5009270;28;20038;-76
2023/06/03 04:24:59;;;;;;;173.15;59.72;;;;;;;17.23;64.44;102309.91;4993518;28;20029;-76
2023/06/03 04:27:24;;;;;;;173.93;61.15;;;;;;;17.24;64.47;102309.03;5000174;28;20018;-75
2023/06/03 04:29:50;;;;;;;175.50;62.03;;;;;;;17.24;64.25;102309.88;5011732;28;20038;-76
2023/06/03 04:32:15;;;;;;;177.25;62.90;;;;;;;17.24;64.21;102303.75;4994550;28;20033;-75
2023/06/03 04:34:52;;;;;;;174.88;60.35;;;;;;;17.26;64.75;102301.97;5009174;28;20175;-76
2023/06/03 04:37:17;;;;;;;174.73;60.83;;;;;;;17.26;64.60;102307.25;4993869;28;20022;-75
2023/06/03 04:39:43;;;;;;;171.38;62.55;;;;;;;17.28;64.22;102310.72;4993217;28;20322;-76
2023/06/03 04:42:10;;;;;;;173.02;61.08;;;;;;;17.29;64.45;102312.47;5009295;28;20018;-76
2023/06/03 04:44:38;;;;;;;179.82;62.10;;;;;;;17.31;64.76;102312.44;5009034;28;20042;-76
2023/06/03 04:47:03;;;;;;;171.20;60.22;;;;;;;17.34;64.54;102310.63;4977346;28;20037;-75
2023/06/03 04:49:32;;;;;;;174.60;61.42;;;;;;;17.37;65.39;102305.25;4992161;28;20022;-76
2023/06/03 04:51:57;;;;;;;173.27;61.63;;;;;;;17.37;65.17;102302.63;4993852;28;20487;-77
2023/06/03 04:54:23;;;;;;;179.68;61.28;;;;;;;17.37;65.05;102294.69;4993425;28;20041;-77
2023/06/03 04:56:49;;;;;;;175.00;61.65;;;;;;;17.41;65.02;102306.09;4993394;28;20059;-76
2023/06/03 04:59:15;;;;;;;173.73;61.10;;;;;;;17.42;64.59;102301.66;5007068;28;20403;-75
2023/06/03 05:01:40;;;;;;;176.30;61.58;;;;;;;17.45;64.10;102298.94;4994422;28;20050;-75
2023/06/03 05:04:08;;;;;;;183.32;62.05;;;;;;;17.49;64.33;102305.91;4993026;28;20030;-75
2023/06/03 05:06:36;;;;;;;171.02;60.08;;;;;;;17.50;64.57;102299.75;4993960;28;20026;-76
2023/06/03 05:09:01;;;;;;;174.43;60.25;;;;;;;17.52;64.49;102298.81;4976630;28;20081;-76
2023/06/03 05:11:27;;;;;;;171.00;60.20;;;;;;;17.52;64.00;102297.91;4992982;28;20026;-75
2023/06/03 05:13:52;;;;;;;166.70;58.72;;;;;;;17.55;64.22;102301.38;4993789;28;20034;-75
2023/06/03 05:16:18;;;;;;;175.15;61.35;;;;;;;17.56;63.57;102299.59;4994127;28;20018;-74
2023/06/03 05:18:45;;;;;;;175.55;60.38;;;;;;;17.59;63.31;102304.84;4991274;28;20400;-75
2023/06/03 05:21:10;;;;;;;171.65;60.85;;;;;;;17.61;63.54;102297.75;4989324;28;20035;-74
2023/06/03 05:23:35;;;;;;;182.15;61.97;;;;;;;17.62;63.42;102304.78;4991418;28;20031;-74
2023/06/03 05:26:01;;;;;;;170.02;59.28;;;;;;;17.63;63.98;102293.31;4991544;28;20022;-75
2023/06/03 05:28:26;;;;;;;175.30;61.10;;;;;;;17.66;63.46;102301.16;4993027;28;20058;-75
2023/06/03 05:30:51;;;;;;;172.75;60.22;;;;;;;17.69;63.54;102300.25;4976579;28;20037;-75
2023/06/03 05:33:27;;;;;;;178.52;61.70;;;;;;;17.71;63.04;102304.59;4992262;28;20097;-76
2023/06/03 05:35:53;;;;;;;173.70;61.42;;;;;;;17.74;63.06;102303.66;4994953;28;20033;-76
2023/06/03 05:38:18;;;;;;;175.50;60.60;;;;;;;17.76;62.58;102303.63;4992777;28;20022;-76
2023/06/03 05:40:44;;;;;;;176.38;60.58;;;;;;;17.78;62.71;102299.16;4993320;28;20073;-77
2023/06/03 05:43:09;;;;;;;177.35;60.03;;;;;;;17.80;62.50;102305.31;4986640;28;20555;-76
2023/06/03 05:45:34;;;;;;;181.35;62.25;;;;;;;17.82;62.35;102300.84;4993558;28;20026;-76
2023/06/03 05:48:00;;;;;;;187.18;63.22;;;;;;;17.84;61.55;102301.69;4992845;28;20113;-75
2023/06/03 05:50:26;;;;;;;174.23;61.08;;;;;;;17.85;61.13;102298.16;4991773;28;20022;-76
2023/06/03 05:52:51;;;;;;;176.80;61.42;;;;;;;17.87;61.42;102294.59;5006869;28;20089;-75
2023/06/03 05:55:16;;;;;;;178.20;60.78;;;;;;;17.90;60.71;102301.53;4991360;28;20113;-75
2023/06/03 05:57:42;;;;;;;179.18;59.60;;;;;;;17.95;60.28;102302.34;4992219;28;20113;-75
2023/06/03 06:00:07;;;;;;;174.43;59.30;;;;;;;18.02;59.13;102303.09;4975737;28;20038;-75
2023/06/03 06:02:33;;;;;;;183.18;60.70;;;;;;;18.11;57.92;102304.69;5030868;23;20087;-82
2023/06/03 06:04:58;;;;;;;178.75;59.85;;;;;;;18.22;57.99;102307.94;5021043;28;20120;-81
2023/06/03 06:07:23;;;;;;;173.90;59.80;;;;;;;18.32;58.62;102306.81;5040701;28;20025;-82
2023/06/03 06:09:49;;;;;;;179.40;59.97;;;;;;;18.45;57.59;102307.41;5044821;28;20026;-82
2023/06/03 06:12:14;;;;;;;176.65;63.45;;;;;;;18.58;57.58;102310.63;5042805;28;20116;-80
2023/06/03 06:14:40;;;;;;;171.48;59.67;;;;;;;18.84;56.58;102311.75;5036972;28;20033;-81
2023/06/03 06:17:05;;;;;;;187.32;60.67;;;;;;;19.23;55.55;102306.38;5049690;28;20040;-82
2023/06/03 06:19:30;;;;;;;171.68;59.55;;;;;;;20.06;52.88;102304.00;5030567;28;20026;-83
2023/06/03 06:21:56;;;;;;;175.43;60.95;;;;;;;20.86;50.54;102302.34;5028608;28;20029;-83
2023/06/03 06:24:21;;;;;;;180.40;61.10;;;;;;;21.43;49.22;102303.00;5051289;28;20021;-82
2023/06/03 06:26:48;;;;;;;175.38;59.30;;;;;;;21.91;48.43;102306.56;5023488;28;20053;-80
2023/06/03 06:29:13;;;;;;;177.05;60.92;;;;;;;22.21;47.22;102304.53;5029384;28;20032;-80
2023/06/03 06:31:38;;;;;;;176.57;60.08;;;;;;;22.51;45.59;102300.69;5042313;28;20073;-80
2023/06/03 06:34:05;;;;;;;182.07;62.38;;;;;;;22.85;44.35;102304.59;5055407;28;20115;-80
2023/06/03 06:36:41;;;;;;;175.90;61.42;;;;;;;23.07;44.78;102304.53;5040761;28;20013;-83
2023/06/03 06:39:26;;;;;;;180.30;62.47;;;;;;;23.26;44.48;102304.63;5044670;28;20111;-81
2023/06/03 06:41:52;;;;;;;175.82;61.88;;;;;;;23.46;43.53;102304.63;5011561;28;20040;-82
2023/06/03 06:44:17;;;;;;;195.27;63.85;;;;;;;23.69;42.88;102307.16;5030570;28;20021;-81
2023/06/03 06:46:43;;;;;;;178.18;62.28;;;;;;;23.83;42.79;102303.84;5047329;28;20085;-81
2023/06/03 06:49:09;;;;;;;182.95;61.97;;;;;;;23.92;41.96;102301.63;5025671;28;20079;-81
2023/06/03 06:51:36;;;;;;;179.73;63.42;;;;;;;24.34;41.85;102306.78;5026161;28;20067;-80
2023/06/03 06:54:01;;;;;;;185.98;63.50;;;;;;;24.37;40.72;102299.50;5043266;28;20029;-81
2023/06/03 06:56:26;;;;;;;177.40;63.40;;;;;;;24.50;41.46;102299.75;5041396;28;20108;-80
2023/06/03 06:58:52;;;;;;;180.27;63.25;;;;;;;24.73;40.74;102303.09;5045712;28;20060;-81
2023/06/03 07:01:18;;;;;;;189.13;67.43;;;;;;;24.86;40.25;102295.34;5041321;28;20049;-81
2023/06/03 07:03:43;;;;;;;183.10;64.47;;;;;;;25.11;39.55;102298.47;5047125;28;20505;-81
2023/06/03 07:06:08;;;;;;;182.93;64.70;;;;;;;25.28;39.07;102291.34;5017464;28;20028;-82
2023/06/03 07:08:34;;;;;;;177.60;64.65;;;;;;;25.23;39.41;102288.03;5037383;28;20029;-82
2023/06/03 07:11:02;;;;;;;183.15;64.13;;;;;;;25.46;38.66;102293.03;5049855;28;20107;-79
2023/06/03 07:13:27;;;;;;;206.85;69.10;;;;;;;25.74;38.24;102294.22;5042921;28;20060;-80
2023/06/03 07:15:53;;;;;;;180.73;64.55;;;;;;;25.98;37.75;102291.09;5037299;28;20049;-81
2023/06/03 07:18:19;;;;;;;174.00;62.33;;;;;;;26.01;37.36;102301.63;5050613;28;20551;-81
2023/06/03 07:20:46;;;;;;;184.93;65.75;;;;;;;26.22;36.72;102298.72;5048734;28;20134;-80
2023/06/03 07:23:14;;;;;;;182.05;63.25;;;;;;;26.25;37.05;102287.84;5032007;28;20083;-79
2023/06/03 07:25:45;;;;;;;181.88;64.53;;;;;;;26.28;37.00;102291.19;5036755;28;20104;-80
2023/06/03 07:28:13;;;;;;;180.02;64.25;;;;;;;26.57;36.27;102288.63;5052033;28;20021;-79
2023/06/03 07:30:39;;;;;;;189.25;65.15;;;;;;;26.60;36.21;102284.91;5038873;28;20026;-81
2023/06/03 07:33:08;;;;;;;188.07;64.75;;;;;;;26.74;35.90;102294.84;5027615;28;20021;-78
2023/06/03 07:35:35;;;;;;;184.35;64.65;;;;;;;26.76;35.46;102293.78;5024286;28;20022;-79
2023/06/03 07:38:00;;;;;;;185.77;64.32;;;;;;;26.98;35.24;102297.84;5041716;28;20052;-79
2023/06/03 07:40:55;;;;;;;180.18;65.88;;;;;;;26.92;35.10;102287.50;5018868;28;20025;-80
2023/06/03 07:43:21;;;;;;;177.32;63.97;;;;;;;27.54;34.06;102286.41;5013213;28;20065;-79
2023/06/03 07:45:48;;;;;;;180.80;65.10;;;;;;;27.48;34.33;102288.53;5034782;28;20501;-78
2023/06/03 07:48:14;;;;;;;180.43;65.30;;;;;;;28.06;33.79;102290.25;5025687;28;20506;-78
2023/06/03 07:50:40;;;;;;;182.57;65.53;;;;;;;28.17;33.36;102288.59;5038638;28;20032;-78
2023/06/03 07:53:05;;;;;;;188.38;68.15;;;;;;;28.41;32.96;102289.75;5027956;28;20524;-78
2023/06/03 07:56:00;;;;;;;181.57;66.00;;;;;;;28.64;32.34;102285.53;5028708;28;20467;-78
2023/06/03 07:58:26;;;;;;;180.93;67.18;;;;;;;28.54;32.18;102287.09;5010797;28;20345;-78
2023/06/03 08:00:52;;;;;;;189.82;68.38;;;;;;;28.85;31.88;102280.53;5018230;28;20053;-77
2023/06/03 08:03:18;;;;;;;183.60;66.07;;;;;;;28.82;31.77;102273.53;5016889;28;20112;-77
2023/06/03 08:05:46;;;;;;;179.80;65.53;;;;;;;28.90;32.03;102275.66;5017374;28;20021;-78
2023/06/03 08:08:12;;;;;;;181.35;68.70;;;;;;;28.91;32.11;102277.41;5033987;28;20112;-78
2023/06/03 08:10:38;;;;;;;181.75;67.95;;;;;;;29.03;31.83;102275.69;5023005;28;20505;-79
2023/06/03 08:13:05;;;;;;;182.32;68.07;;;;;;;28.92;31.87;102280.94;5021305;28;20045;-78
2023/06/03 08:15:32;;;;;;;180.82;67.32;;;;;;;29.05;31.49;102284.50;5037005;28;20033;-78
2023/06/03 08:17:59;;;;;;;180.60;67.10;;;;;;;29.06;31.67;102285.38;5028685;28;20034;-78
2023/06/03 08:20:28;;;;;;;191.55;71.25;;;;;;;29.11;31.26;102289.47;5036181;28;20037;-79
2023/06/03 08:22:54;;;;;;;184.60;66.68;;;;;;;29.03;31.82;102280.19;5044398;28;20107;-81
2023/06/03 08:25:19;;;;;;;182.23;67.50;;;;;;;28.96;31.21;102283.31;5041748;28;20025;-80
2023/06/03 08:27:45;;;;;;;182.10;66.53;;;;;;;28.92;31.31;102278.25;5023083;28;20029;-80
2023/06/03 08:30:12;;;;;;;181.38;70.43;;;;;;;28.68;31.67;102270.94;5020592;28;20028;-79
2023/06/03 08:32:38;;;;;;;183.35;65.88;;;;;;;28.57;32.13;102284.22;5021570;28;20030;-79
2023/06/03 08:35:05;;;;;;;177.25;67.20;;;;;;;28.72;31.97;102283.19;5037832;28;20021;-78
2023/06/03 08:37:32;;;;;;;180.30;67.60;;;;;;;28.97;31.83;102284.19;5020355;28;20030;-77
2023/06/03 08:39:58;;;;;;;181.63;67.43;;;;;;;29.02;31.17;102284.72;5029376;28;20036;-78
2023/06/03 08:42:29;;;;;;;179.55;66.60;;;;;;;29.02;30.93;102284.72;5040519;28;20029;-78
2023/06/03 08:45:02;;;;;;;185.07;67.10;;;;;;;29.07;31.32;102282.56;5021750;28;20028;-78
2023/06/03 08:48:06;;;;;;;173.07;65.72;;;;;;;29.23;30.74;102284.16;5024253;28;20275;-80
2023/06/03 08:50:33;;;;;;;181.13;67.30;;;;;;;29.20;31.21;102282.56;5029888;28;20041;-78
2023/06/03 08:53:03;;;;;;;180.32;67.60;;;;;;;29.43;31.10;102286.34;5036419;28;20108;-72
2023/06/03 08:55:29;;;;;;;181.80;68.63;;;;;;;29.44;30.81;102280.00;5038152;28;20022;-72
2023/06/03 08:58:15;;;;;;;197.43;70.97;;;;;;;29.56;29.64;102278.25;5025086;28;20682;-74
2023/06/03 09:00:42;;;;;;;187.95;69.97;;;;;;;29.53;29.81;102282.97;5039252;28;20440;-75
2023/06/03 09:03:08;;;;;;;186.18;69.15;;;;;;;29.83;26.58;102283.44;5041583;28;20028;-76
2023/06/03 09:05:34;;;;;;;189.27;68.63;;;;;;;29.93;27.40;102272.88;5017846;28;20100;-76
2023/06/03 09:08:00;;;;;;;179.30;67.03;;;;;;;29.97;28.31;102271.69;5006866;28;20471;-76
2023/06/03 09:10:26;;;;;;;181.45;67.45;;;;;;;29.94;28.26;102273.72;5018739;28;20025;-76
2023/06/03 09:12:56;;;;;;;186.18;67.68;;;;;;;30.07;26.97;102271.84;5017091;28;20061;-75
2023/06/03 09:15:21;;;;;;;193.52;68.68;;;;;;;29.79;23.74;102271.19;5022635;28;20031;-73
2023/06/03 09:17:47;;;;;;;190.57;67.97;;;;;;;30.08;25.78;102265.50;5027102;28;20041;-76
2023/06/03 09:20:13;;;;;;;183.60;65.53;;;;;;;30.11;25.22;102267.94;5036116;28;20053;-73
2023/06/03 09:22:41;;;;;;;181.13;65.82;;;;;;;30.17;26.12;102267.50;5008934;28;20041;-72
2023/06/03 09:25:07;;;;;;;181.88;66.00;;;;;;;30.18;26.06;102257.56;5014925;28;20507;-72
2023/06/03 09:27:33;;;;;;;182.80;66.32;;;;;;;30.38;23.76;102261.47;5029744;28;20036;-73
2023/06/03 09:30:00;;;;;;;180.43;65.63;;;;;;;30.17;25.02;102259.41;5009280;28;20088;-71
2023/06/03 09:32:25;;;;;;;185.50;66.57;;;;;;;30.31;23.67;102257.50;5030085;28;20119;-71
2023/06/03 09:34:53;;;;;;;188.75;68.55;;;;;;;30.07;22.00;102261.06;5029322;28;20100;-71
2023/06/03 09:37:18;;;;;;;184.52;67.18;;;;;;;30.42;23.59;102265.63;5023437;28;20044;-72
2023/06/03 09:39:45;;;;;;;179.75;65.72;;;;;;;30.02;24.05;102255.16;5016924;28;20069;-71
2023/06/03 09:42:11;;;;;;;179.98;67.25;;;;;;;30.18;22.71;102258.41;5021793;28;20494;-71
2023/06/03 09:44:40;;;;;;;184.70;67.82;;;;;;;30.01;23.36;102253.47;5020794;28;20025;-70
2023/06/03 09:47:06;;;;;;;174.40;66.13;;;;;;;29.89;23.32;102262.44;5022923;28;20061;-70
2023/06/03 09:49:31;;;;;;;180.75;67.25;;;;;;;29.86;23.42;102257.28;5011949;28;20106;-71
2023/06/03 09:51:57;;;;;;;196.95;69.28;;;;;;;29.82;21.92;102259.34;5022682;28;20096;-72
2023/06/03 09:54:23;;;;;;;185.15;67.80;;;;;;;29.46;22.94;102259.22;5030681;28;20525;-75
2023/06/03 09:56:49;;;;;;;180.43;66.20;;;;;;;28.78;23.41;102261.28;5019198;28;20033;-75
2023/06/03 09:59:18;;;;;;;184.95;67.50;;;;;;;28.62;23.21;102261.44;5010991;28;20039;-72
2023/06/03 10:01:48;;;;;;;178.07;66.35;;;;;;;27.46;24.81;102258.25;5011287;28;20029;-72
2023/06/03 10:04:22;;;;;;;190.02;68.03;;;;;;;26.75;26.62;102265.28;5025972;28;20491;-73
2023/06/03 10:07:07;;;;;;;210.30;70.93;;;;;;;26.07;28.71;102250.47;5020176;28;20030;-73
2023/06/03 10:09:33;;;;;;;194.80;67.43;;;;;;;25.54;28.75;102257.00;5022184;28;20529;-74
2023/06/03 10:11:58;;;;;;;183.40;67.10;;;;;;;25.41;29.15;102254.13;5024277;28;20061;-76
2023/06/03 10:14:27;;;;;;;191.45;68.22;;;;;;;25.22;30.11;102259.56;5026799;28;20078;-75
2023/06/03 10:17:06;;;;;;;181.68;67.28;;;;;;;24.64;30.62;102256.34;5025346;28;20406;-72
2023/06/03 10:19:39;;;;;;;179.55;67.53;;;;;;;24.23;29.87;102261.94;5023928;28;20018;-74
2023/06/03 10:22:06;;;;;;;190.50;67.85;;;;;;;24.13;30.47;102262.38;5021330;28;20096;-73
2023/06/03 10:24:34;;;;;;;174.52;66.07;;;;;;;23.78;31.00;102261.38;5026344;28;20168;-74
2023/06/03 10:27:01;;;;;;;195.57;69.45;;;;;;;23.58;31.60;102256.97;5007446;28;20025;-73
2023/06/03 10:29:29;;;;;;;182.40;67.00;;;;;;;23.33;32.23;102252.78;5022358;28;20053;-73
2023/06/03 10:31:56;;;;;;;188.52;68.68;;;;;;;23.09;32.82;102258.25;5017892;28;20115;-75
2023/06/03 10:34:22;;;;;;;195.77;69.63;;;;;;;22.92;33.18;102258.16;5025126;28;20814;-74
2023/06/03 10:36:51;;;;;;;192.93;67.60;;;;;;;22.76;34.80;102256.13;5006711;28;20061;-74
2023/06/03 10:39:16;;;;;;;184.00;68.32;;;;;;;22.61;34.47;102248.81;5008733;28;20025;-72
2023/06/03 10:41:43;;;;;;;185.18;67.88;;;;;;;22.41;35.12;102244.31;5027676;28;20029;-72
2023/06/03 10:44:08;;;;;;;193.38;68.90;;;;;;;22.28;33.51;102241.28;5028254;28;20025;-73
2023/06/03 10:46:34;;;;;;;192.40;69.05;;;;;;;22.14;33.26;102223.19;5031109;28;20009;-74
2023/06/03 10:49:01;;;;;;;184.32;67.32;;;;;;;22.09;33.58;102244.66;5023177;28;20052;-74
2023/06/03 10:51:44;;;;;;;185.63;67.45;;;;;;;21.99;33.29;102237.13;5021563;28;20494;-73
2023/06/03 10:54:30;;;;;;;197.05;69.05;;;;;;;21.90;33.16;102230.38;5024908;28;20108;-73
2023/06/03 10:57:15;;;;;;;190.65;67.90;;;;;;;21.64;35.43;102234.94;5019295;28;20052;-73
2023/06/03 10:59:42;;;;;;;189.57;70.07;;;;;;;21.57;35.39;102228.13;5029669;28;20025;-74
2023/06/03 11:02:07;;;;;;;185.95;67.45;;;;;;;21.53;33.81;102250.41;5004207;28;20021;-74
2023/06/03 11:04:37;;;;;;;183.52;67.35;;;;;;;21.48;34.65;102241.72;5043212;28;20079;-74